Time;durP1;ratioP1;P1;durP2;ratioP2;P2;SDS_P1;SDS_P2;PMS_P1;PMS_P2;Temp;Humidity;BMP_temperature;BMP_pressure;BME280_temperature;BME280_humidity;BME280_pressure;Samples;Min_cycle;Max_cycle;Signal;HPM_P1;HPM_P2
2023/07/29 00:01:40;;;;;;;7.77;5.70;;;;;;;16.51;100.00;100274.97;7359064;19;21005;-38
2023/07/29 00:04:11;;;;;;;6.53;4.90;;;;;;;16.40;100.00;100271.41;7389470;19;20419;-39
2023/07/29 00:06:43;;;;;;;9.20;5.83;;;;;;;16.43;100.00;100281.84;7363212;19;20767;-41
2023/07/29 00:09:13;;;;;;;7.40;5.47;;;;;;;16.38;100.00;100270.50;7392428;19;20955;-39
2023/07/29 00:11:45;;;;;;;8.23;5.67;;;;;;;16.31;100.00;100274.78;7367023;19;20422;-39
2023/07/29 00:14:14;;;;;;;8.27;5.00;;;;;;;16.22;100.00;100259.94;7396020;19;20407;-39
2023/07/29 00:16:44;;;;;;;7.23;5.70;;;;;;;16.10;100.00;100257.19;7395764;19;20438;-40
2023/07/29 00:19:14;;;;;;;7.33;5.70;;;;;;;16.08;100.00;100248.50;7394540;19;20407;-42
2023/07/29 00:21:46;;;;;;;7.70;5.33;;;;;;;16.00;100.00;100238.03;7398913;19;20463;-44
2023/07/29 00:24:16;;;;;;;7.97;5.60;;;;;;;16.01;100.00;100235.41;7372176;19;21006;-40
2023/07/29 00:26:48;;;;;;;8.93;6.13;;;;;;;16.10;100.00;100234.63;7396156;19;20415;-40
2023/07/29 00:29:18;;;;;;;10.97;5.63;;;;;;;16.14;100.00;100219.94;7397616;19;20396;-41
2023/07/29 00:31:48;;;;;;;8.73;5.57;;;;;;;16.19;100.00;100218.25;7398092;19;20435;-40
2023/07/29 00:34:19;;;;;;;6.47;5.13;;;;;;;16.09;100.00;100212.09;7373219;19;20438;-41
2023/07/29 00:36:52;;;;;;;11.17;6.40;;;;;;;16.07;100.00;100208.59;7397985;19;20411;-42
2023/07/29 00:39:22;;;;;;;10.20;8.13;;;;;;;16.13;100.00;100205.19;7376656;19;20494;-40
2023/07/29 00:41:52;;;;;;;8.03;6.20;;;;;;;16.12;100.00;100198.22;7392571;19;20447;-37
2023/07/29 00:44:21;;;;;;;7.50;5.77;;;;;;;16.16;100.00;100198.28;7394938;19;20428;-43
2023/07/29 00:46:52;;;;;;;8.73;6.67;;;;;;;16.19;100.00;100198.31;7397616;19;20776;-41
2023/07/29 00:49:23;;;;;;;7.77;5.63;;;;;;;16.33;100.00;100198.47;7376889;19;20461;-41
2023/07/29 00:51:55;;;;;;;7.77;6.00;;;;;;;16.39;100.00;100201.94;7387226;19;20452;-38
2023/07/29 00:54:25;;;;;;;8.50;6.77;;;;;;;16.28;100.00;100187.13;7396838;19;20404;-40
2023/07/29 00:56:55;;;;;;;9.80;7.13;;;;;;;16.25;100.00;100192.28;7374327;19;20821;-41
2023/07/29 00:59:25;;;;;;;8.20;5.80;;;;;;;16.18;100.00;100186.16;7396729;19;20402;-41
2023/07/29 01:01:54;;;;;;;7.97;6.37;;;;;;;16.21;100.00;100190.53;7375768;19;20989;-39
2023/07/29 01:04:24;;;;;;;7.20;6.20;;;;;;;16.19;100.00;100192.22;7397735;19;20434;-40
2023/07/29 01:07:05;;;;;;;9.43;5.43;;;;;;;16.13;100.00;100205.19;7372729;19;20423;-40
2023/07/29 01:09:42;;;;;;;7.73;5.93;;;;;;;16.13;100.00;100202.56;7396040;19;20407;-43
2023/07/29 01:12:16;;;;;;;9.40;5.60;;;;;;;16.14;100.00;100181.78;7372059;19;20808;-42
2023/07/29 01:14:50;;;;;;;9.30;6.80;;;;;;;16.13;100.00;100171.34;7389012;19;21014;-40
2023/07/29 01:17:26;;;;;;;7.13;5.60;;;;;;;16.14;100.00;100180.91;7373092;19;20387;-43
2023/07/29 01:20:05;;;;;;;8.37;5.13;;;;;;;16.30;100.00;100184.50;7397046;19;20486;-41
2023/07/29 01:22:39;;;;;;;10.63;5.63;;;;;;;16.28;100.00;100184.53;7396214;19;20804;-43
2023/07/29 01:25:12;;;;;;;11.40;6.47;;;;;;;16.12;100.00;100180.91;7370780;19;20450;-39
2023/07/29 01:27:41;;;;;;;8.43;6.07;;;;;;;16.02;100.00;100184.25;7396403;19;20400;-41
2023/07/29 01:30:12;;;;;;;7.17;5.90;;;;;;;16.02;100.00;100179.06;7370037;19;20487;-42
2023/07/29 01:32:50;;;;;;;9.90;6.00;;;;;;;16.04;100.00;100165.22;7395837;19;20456;-41
2023/07/29 01:35:25;;;;;;;8.70;6.20;;;;;;;16.21;100.00;100164.50;7371334;19;20462;-38
2023/07/29 01:37:58;;;;;;;7.77;5.73;;;;;;;16.26;100.00;100157.59;7395765;19;20769;-40
2023/07/29 01:40:31;;;;;;;7.63;6.13;;;;;;;16.23;100.00;100152.38;7367013;19;20978;-39
2023/07/29 01:43:00;;;;;;;9.30;5.40;;;;;;;16.23;100.00;100157.56;7393408;19;20478;-41
2023/07/29 01:45:32;;;;;;;7.30;5.33;;;;;;;16.26;100.00;100160.19;7372566;19;20464;-40
2023/07/29 01:48:01;;;;;;;7.90;5.67;;;;;;;16.17;100.00;100165.31;7395420;19;20407;-40
2023/07/29 01:50:32;;;;;;;8.93;6.03;;;;;;;16.19;100.00;100161.88;7371202;19;20434;-39
2023/07/29 01:53:01;;;;;;;7.30;5.37;;;;;;;16.12;100.00;100177.41;7394319;19;20402;-39
2023/07/29 01:55:34;;;;;;;7.93;5.27;;;;;;;16.05;100.00;100168.69;7370452;19;20482;-43
2023/07/29 01:58:03;;;;;;;9.10;6.30;;;;;;;16.00;100.00;100175.56;7394261;19;20384;-39
2023/07/29 02:00:33;;;;;;;7.70;5.43;;;;;;;16.02;100.00;100179.94;7371408;19;20503;-39
2023/07/29 02:03:03;;;;;;;7.10;5.60;;;;;;;16.05;100.00;100172.16;7396480;19;20416;-42
2023/07/29 02:05:32;;;;;;;10.17;6.67;;;;;;;16.10;100.00;100171.34;7369203;19;20455;-43
2023/07/29 02:08:02;;;;;;;11.80;7.90;;;;;;;16.14;100.00;100175.69;7394443;19;20500;-40
2023/07/29 02:10:34;;;;;;;8.67;6.20;;;;;;;16.13;100.00;100168.75;7371473;19;20424;-40
2023/07/29 02:13:05;;;;;;;9.90;7.00;;;;;;;16.11;100.00;100157.47;7393418;19;20412;-39
2023/07/29 02:15:34;;;;;;;14.17;8.60;;;;;;;16.15;100.00;100147.09;7368536;19;20451;-39
2023/07/29 02:18:06;;;;;;;11.47;7.50;;;;;;;16.15;100.00;100149.69;7393821;19;20406;-40
2023/07/29 02:20:36;;;;;;;14.00;7.67;;;;;;;16.13;100.00;100150.53;7368781;19;20423;-41
2023/07/29 02:23:07;;;;;;;12.20;9.50;;;;;;;16.15;100.00;100122.81;7393287;19;20955;-39
2023/07/29 02:25:43;;;;;;;11.00;7.70;;;;;;;16.16;100.00;100116.75;7367994;19;20603;-39
2023/07/29 02:28:13;;;;;;;10.40;7.50;;;;;;;16.15;100.00;100117.63;7395455;19;20474;-39
2023/07/29 02:30:44;;;;;;;9.97;6.93;;;;;;;16.13;100.00;100114.09;7373001;19;20450;-40
2023/07/29 02:33:14;;;;;;;12.13;7.73;;;;;;;16.13;100.00;100111.50;7394160;19;20419;-39
2023/07/29 02:35:43;;;;;;;13.23;7.90;;;;;;;16.14;100.00;100105.44;7367034;19;20471;-43
2023/07/29 02:38:13;;;;;;;11.43;7.80;;;;;;;16.16;100.00;100106.34;7394632;19;20406;-41
2023/07/29 02:40:45;;;;;;;13.60;8.70;;;;;;;16.19;100.00;100103.75;7372471;19;21034;-41
2023/07/29 02:43:15;;;;;;;11.10;8.43;;;;;;;16.20;100.00;100111.56;7385067;19;20451;-39
2023/07/29 02:45:44;;;;;;;12.73;8.83;;;;;;;16.23;100.00;100110.72;7395661;19;20527;-39
2023/07/29 02:48:14;;;;;;;12.47;8.50;;;;;;;16.22;100.00;100109.00;7395496;19;20418;-39
2023/07/29 02:50:44;;;;;;;12.17;8.77;;;;;;;16.26;100.00;100110.75;7372363;19;20439;-39
2023/07/29 02:53:14;;;;;;;13.50;8.57;;;;;;;16.28;100.00;100106.44;7393917;19;20437;-41
2023/07/29 02:55:46;;;;;;;12.57;8.80;;;;;;;16.30;100.00;100112.53;7371467;19;20453;-40
2023/07/29 02:58:15;;;;;;;15.13;8.90;;;;;;;16.33;100.00;100117.75;7375937;19;20407;-38
2023/07/29 03:00:47;;;;;;;14.07;9.20;;;;;;;16.35;100.00;100114.28;7393684;19;20417;-41
2023/07/29 03:03:18;;;;;;;12.87;9.83;;;;;;;16.38;100.00;100103.91;7363678;19;20796;-40
2023/07/29 03:05:48;;;;;;;12.47;9.50;;;;;;;16.40;100.00;100107.41;7394788;19;20531;-38
2023/07/29 03:08:18;;;;;;;17.67;12.13;;;;;;;16.39;100.00;100124.75;7369767;19;20408;-39
2023/07/29 03:10:52;;;;;;;17.93;11.00;;;;;;;16.39;100.00;100124.75;7393680;19;20409;-40
2023/07/29 03:13:21;;;;;;;15.37;10.37;;;;;;;16.43;100.00;100120.44;7368416;19;20408;-39
2023/07/29 03:15:51;;;;;;;17.83;12.70;;;;;;;16.44;100.00;100129.97;7392484;19;20453;-39
2023/07/29 03:18:21;;;;;;;16.47;12.20;;;;;;;16.46;100.00;100126.53;7366577;19;20479;-39
2023/07/29 03:20:51;;;;;;;16.67;12.20;;;;;;;16.50;100.00;100122.22;7392466;19;20407;-41
2023/07/29 03:23:21;;;;;;;18.33;12.80;;;;;;;16.48;100.00;100131.75;7369273;19;20395;-38
2023/07/29 03:25:56;;;;;;;15.83;12.17;;;;;;;16.51;100.00;100126.56;7391200;19;21259;-39
2023/07/29 03:28:27;;;;;;;16.77;12.23;;;;;;;16.51;100.00;100123.94;7369520;19;20423;-40
2023/07/29 03:30:57;;;;;;;20.20;12.97;;;;;;;16.54;100.00;100121.38;7393479;19;20502;-39
2023/07/29 03:33:28;;;;;;;21.33;13.60;;;;;;;16.56;100.00;100117.03;7368690;19;20399;-42
2023/07/29 03:35:58;;;;;;;20.90;14.77;;;;;;;16.56;100.00;100113.59;7392487;19;20478;-39
2023/07/29 03:38:28;;;;;;;22.60;15.43;;;;;;;16.54;100.00;100110.97;7369035;19;20412;-39
2023/07/29 03:41:02;;;;;;;20.43;15.30;;;;;;;16.58;100.00;100117.06;7393337;19;20443;-42
2023/07/29 03:43:32;;;;;;;29.63;16.23;;;;;;;16.60;100.00;100113.59;7367554;19;20419;-39
2023/07/29 03:46:01;;;;;;;24.60;16.07;;;;;;;16.60;100.00;100116.22;7391115;19;20408;-41
2023/07/29 03:48:31;;;;;;;22.90;16.07;;;;;;;16.62;100.00;100110.13;7374079;19;20415;-40
2023/07/29 03:51:01;;;;;;;22.37;15.00;;;;;;;16.62;100.00;100102.31;7401385;19;20812;-41
2023/07/29 03:53:30;;;;;;;21.93;15.97;;;;;;;16.64;100.00;100105.81;7373458;19;20955;-39
2023/07/29 03:56:02;;;;;;;24.77;16.70;;;;;;;16.63;100.00;100104.06;7397964;19;21019;-39
2023/07/29 03:58:32;;;;;;;29.70;20.33;;;;;;;16.64;100.00;100100.59;7374590;19;20495;-39
2023/07/29 04:01:01;;;;;;;32.80;21.50;;;;;;;16.66;100.00;100094.53;7397086;19;20518;-42
2023/07/29 04:03:31;;;;;;;23.97;16.40;;;;;;;16.65;100.00;100102.34;7376422;19;20443;-39
2023/07/29 04:06:01;;;;;;;25.50;16.90;;;;;;;16.64;100.00;100095.38;7398500;19;20379;-41
2023/07/29 04:08:31;;;;;;;21.77;16.03;;;;;;;16.68;100.00;100095.44;7374158;19;20408;-40
2023/07/29 04:11:03;;;;;;;22.70;16.50;;;;;;;16.67;100.00;100093.66;7400468;19;20515;-38
2023/07/29 04:13:33;;;;;;;22.97;17.00;;;;;;;16.71;100.00;100087.63;7372628;19;20407;-40
2023/07/29 04:16:02;;;;;;;24.13;16.80;;;;;;;16.73;100.00;100092.84;7397082;19;20411;-41
2023/07/29 04:18:32;;;;;;;21.53;16.03;;;;;;;16.74;100.00;100086.78;7375131;19;20407;-39
2023/07/29 04:21:01;;;;;;;25.30;17.03;;;;;;;16.76;100.00;100099.81;7398233;19;20447;-40
2023/07/29 04:23:31;;;;;;;25.73;16.37;;;;;;;16.76;100.00;100100.66;7375241;19;20770;-40
2023/07/29 04:26:03;;;;;;;25.60;17.30;;;;;;;16.78;100.00;100093.75;7400247;19;20407;-39
2023/07/29 04:28:33;;;;;;;22.40;17.10;;;;;;;16.82;100.00;100097.25;7374551;19;20419;-41
2023/07/29 04:31:02;;;;;;;24.33;17.63;;;;;;;16.81;100.00;100106.78;7396089;19;20451;-39
2023/07/29 04:33:32;;;;;;;25.70;17.80;;;;;;;16.81;100.00;100104.19;7372616;19;20436;-40
2023/07/29 04:36:06;;;;;;;24.20;18.30;;;;;;;16.86;100.00;100106.81;7395576;19;20418;-42
2023/07/29 04:38:36;;;;;;;31.43;20.37;;;;;;;16.83;100.00;100099.84;7372765;19;20463;-41
2023/07/29 04:41:09;;;;;;;32.57;20.30;;;;;;;16.84;100.00;100098.13;7397452;19;20457;-40
2023/07/29 04:43:39;;;;;;;34.80;20.40;;;;;;;16.88;100.00;100092.06;7372032;19;20416;-41
2023/07/29 04:46:09;;;;;;;33.80;20.63;;;;;;;16.83;100.00;100102.44;7394533;19;20951;-39
2023/07/29 04:48:39;;;;;;;35.80;22.17;;;;;;;16.85;100.00;100100.72;7374607;19;20391;-41
2023/07/29 04:51:09;;;;;;;34.20;21.93;;;;;;;16.86;100.00;100107.69;7394766;19;20457;-40
2023/07/29 04:53:38;;;;;;;41.40;26.57;;;;;;;16.90;100.00;100098.16;7371066;19;20802;-41
2023/07/29 04:56:11;;;;;;;34.00;22.60;;;;;;;16.91;100.00;100099.88;7395393;19;20478;-40
2023/07/29 04:58:40;;;;;;;37.70;22.07;;;;;;;16.87;100.00;100108.56;7370357;19;20444;-39
2023/07/29 05:01:10;;;;;;;39.83;22.70;;;;;;;16.92;100.00;100108.59;7397124;19;20499;-39
2023/07/29 05:03:40;;;;;;;43.60;23.27;;;;;;;16.90;100.00;100120.72;7374093;19;20495;-39
2023/07/29 05:06:10;;;;;;;39.47;23.60;;;;;;;16.92;100.00;100132.03;7395661;19;20408;-42
2023/07/29 05:08:40;;;;;;;38.23;23.50;;;;;;;16.88;100.00;100128.53;7369965;19;20433;-40
2023/07/29 05:11:12;;;;;;;38.73;22.40;;;;;;;16.93;100.00;100144.19;7394881;19;20432;-42
2023/07/29 05:13:43;;;;;;;39.27;23.00;;;;;;;16.95;100.00;100145.06;7372507;19;20970;-41
2023/07/29 05:16:13;;;;;;;37.90;22.67;;;;;;;16.95;100.00;100152.88;7394467;19;20427;-42
2023/07/29 05:18:43;;;;;;;36.67;23.60;;;;;;;16.91;100.00;100141.56;7371955;19;20387;-42
2023/07/29 05:21:14;;;;;;;36.10;21.80;;;;;;;16.93;100.00;100158.09;7395251;19;20987;-42
2023/07/29 05:23:43;;;;;;;43.87;22.50;;;;;;;16.93;100.00;100160.72;7373722;19;20469;-39
2023/07/29 05:26:16;;;;;;;42.27;23.77;;;;;;;16.91;100.00;100157.19;7397209;19;21283;-40
2023/07/29 05:28:45;;;;;;;41.70;23.10;;;;;;;16.87;100.00;100156.31;7373498;19;20391;-43
2023/07/29 05:31:15;;;;;;;43.97;23.30;;;;;;;16.92;100.00;100158.94;7395899;19;20454;-40
2023/07/29 05:33:45;;;;;;;39.67;24.10;;;;;;;16.97;100.00;100161.59;7371300;19;20811;-42
2023/07/29 05:36:14;;;;;;;39.47;22.13;;;;;;;16.99;100.00;100168.53;7396623;19;20418;-39
2023/07/29 05:38:44;;;;;;;38.30;22.93;;;;;;;16.96;100.00;100170.25;7373288;19;20796;-39
2023/07/29 05:41:17;;;;;;;40.23;23.30;;;;;;;16.99;100.00;100173.75;7396690;19;20447;-40
2023/07/29 05:43:46;;;;;;;36.07;21.37;;;;;;;17.09;100.00;100176.44;7373064;19;20421;-41
2023/07/29 05:46:18;;;;;;;41.80;23.93;;;;;;;17.17;100.00;100173.91;7396405;19;20597;-39
2023/07/29 05:48:48;;;;;;;40.60;22.53;;;;;;;17.12;100.00;100182.53;7372282;19;20395;-39
2023/07/29 05:51:17;;;;;;;35.33;22.13;;;;;;;17.13;100.00;100186.91;7395142;19;20518;-42
2023/07/29 05:53:47;;;;;;;35.87;23.03;;;;;;;17.13;100.00;100179.06;7369312;19;20398;-41
2023/07/29 05:56:20;;;;;;;33.97;21.93;;;;;;;17.20;100.00;100180.00;7394787;19;20796;-40
2023/07/29 05:58:49;;;;;;;40.20;22.63;;;;;;;17.36;100.00;100185.28;7373626;19;20825;-44
2023/07/29 06:01:21;;;;;;;35.20;21.20;;;;;;;17.30;100.00;100195.66;7395175;19;20446;-41
2023/07/29 06:03:51;;;;;;;31.77;19.27;;;;;;;17.26;100.00;100198.28;7372854;19;20400;-45
2023/07/29 06:06:23;;;;;;;36.90;21.80;;;;;;;17.28;100.00;100203.50;7394231;19;20407;-42
2023/07/29 06:08:52;;;;;;;35.93;21.50;;;;;;;17.24;100.00;100212.16;7371254;19;20406;-41
2023/07/29 06:11:25;;;;;;;37.13;22.40;;;;;;;17.17;100.00;100205.16;7393062;19;20583;-39
2023/07/29 06:13:55;;;;;;;29.80;20.20;;;;;;;17.21;100.00;100197.38;7371902;19;20441;-40
2023/07/29 06:16:24;;;;;;;34.00;21.83;;;;;;;17.28;100.00;100198.28;7393587;19;20411;-39
2023/07/29 06:18:54;;;;;;;32.83;21.40;;;;;;;17.31;100.00;100193.06;7371894;19;20395;-40
2023/07/29 06:21:24;;;;;;;35.57;20.80;;;;;;;17.41;100.00;100180.94;7392624;19;20451;-42
2023/07/29 06:23:54;;;;;;;39.57;23.87;;;;;;;17.49;100.00;100179.25;7371538;19;20498;-42
2023/07/29 06:26:26;;;;;;;37.00;21.30;;;;;;;17.54;100.00;100167.09;7393288;19;20412;-41
2023/07/29 06:28:56;;;;;;;32.70;22.00;;;;;;;17.59;100.00;100167.09;7372356;19;20423;-43
2023/07/29 06:31:26;;;;;;;38.07;21.47;;;;;;;17.45;100.00;100164.47;7395000;19;20817;-42
2023/07/29 06:33:56;;;;;;;33.47;22.07;;;;;;;17.50;100.00;100165.38;7370832;19;20399;-40
2023/07/29 06:36:25;;;;;;;33.50;19.97;;;;;;;17.47;100.00;100172.28;7393554;19;20410;-44
2023/07/29 06:38:55;;;;;;;35.03;22.13;;;;;;;17.50;100.00;100167.09;7370098;19;20411;-40
2023/07/29 06:41:28;;;;;;;36.57;22.10;;;;;;;17.63;100.00;100167.97;7393153;19;20443;-40
2023/07/29 06:43:57;;;;;;;30.53;21.03;;;;;;;17.80;100.00;100165.44;7372794;19;20399;-39
2023/07/29 06:46:27;;;;;;;35.30;22.30;;;;;;;17.73;100.00;100169.75;7394412;19;20411;-41
2023/07/29 06:48:57;;;;;;;29.80;20.27;;;;;;;17.66;100.00;100165.41;7370651;19;20403;-40
2023/07/29 06:51:29;;;;;;;30.03;20.00;;;;;;;17.74;100.00;100161.06;7392695;19;20446;-48
2023/07/29 06:53:58;;;;;;;29.83;19.60;;;;;;;17.70;100.00;100169.78;7369662;19;20874;-41
2023/07/29 06:56:31;;;;;;;31.00;21.33;;;;;;;17.68;100.00;100164.53;7392404;19;20951;-41
2023/07/29 06:59:00;;;;;;;34.83;22.63;;;;;;;17.69;100.00;100168.00;7370132;19;20423;-43
2023/07/29 07:01:30;;;;;;;32.17;22.10;;;;;;;17.76;100.00;100163.69;7391410;19;20439;-45
2023/07/29 07:04:00;;;;;;;28.63;20.00;;;;;;;17.83;100.00;100165.44;7372276;19;20411;-39
2023/07/29 07:06:29;;;;;;;28.93;20.03;;;;;;;17.88;100.00;100174.16;7392288;19;20441;-41
2023/07/29 07:08:59;;;;;;;33.10;22.97;;;;;;;17.90;100.00;100180.22;7370954;19;20517;-40
2023/07/29 07:11:31;;;;;;;30.93;20.70;;;;;;;17.91;100.00;100179.38;7393440;19;20450;-42
2023/07/29 07:14:01;;;;;;;31.87;21.00;;;;;;;17.95;100.00;100181.13;7370186;19;20419;-40
2023/07/29 07:16:31;;;;;;;33.90;20.80;;;;;;;17.90;100.00;100177.63;7392275;19;20396;-41
2023/07/29 07:19:01;;;;;;;29.23;20.27;;;;;;;17.83;100.00;100188.06;7366919;19;21139;-40
2023/07/29 07:21:32;;;;;;;29.97;19.83;;;;;;;17.68;100.00;100182.78;7389089;19;20514;-40
2023/07/29 07:24:02;;;;;;;27.47;18.00;;;;;;;17.68;100.00;100188.00;7369586;19;20511;-44
2023/07/29 07:26:34;;;;;;;27.80;18.37;;;;;;;17.75;100.00;100193.25;7393667;19;20412;-42
2023/07/29 07:29:04;;;;;;;27.00;18.33;;;;;;;17.81;100.00;100182.84;7368293;19;20430;-39
2023/07/29 07:31:36;;;;;;;24.90;18.70;;;;;;;17.79;100.00;100187.19;7392268;19;21050;-44
2023/07/29 07:34:06;;;;;;;35.53;20.57;;;;;;;17.77;100.00;100178.47;7367232;19;20509;-40
2023/07/29 07:36:36;;;;;;;30.80;20.07;;;;;;;17.86;100.00;100173.28;7389515;19;20769;-42
2023/07/29 07:39:06;;;;;;;28.80;18.53;;;;;;;17.84;100.00;100176.75;7368892;19;20490;-39
2023/07/29 07:41:39;;;;;;;32.17;19.77;;;;;;;17.81;100.00;100183.69;7391058;19;20535;-41
2023/07/29 07:44:08;;;;;;;32.53;20.30;;;;;;;17.84;100.00;100171.53;7368916;19;20435;-43
2023/07/29 07:46:38;;;;;;;31.20;20.63;;;;;;;17.86;100.00;100165.47;7393140;19;20445;-39
2023/07/29 07:49:08;;;;;;;32.43;19.83;;;;;;;17.92;100.00;100168.09;7367082;19;20436;-40
2023/07/29 07:51:38;;;;;;;32.07;21.77;;;;;;;17.92;100.00;100155.03;7390995;19;21245;-41
2023/07/29 07:54:07;;;;;;;32.80;21.60;;;;;;;17.97;100.00;100149.81;7364309;19;20419;-40
2023/07/29 07:56:40;;;;;;;31.30;20.13;;;;;;;17.97;100.00;100152.44;7391419;19;20828;-43
2023/07/29 07:59:10;;;;;;;30.63;21.10;;;;;;;17.94;100.00;100153.28;7367555;19;20479;-41
2023/07/29 08:01:40;;;;;;;33.93;21.20;;;;;;;17.97;100.00;100148.94;7390153;19;20431;-39
2023/07/29 08:04:10;;;;;;;28.30;19.67;;;;;;;17.96;100.00;100148.06;7365255;19;20442;-41
2023/07/29 08:06:40;;;;;;;32.43;20.60;;;;;;;17.97;100.00;100147.22;7390873;19;20874;-39
2023/07/29 08:09:10;;;;;;;33.57;20.97;;;;;;;17.97;100.00;100144.59;7369056;19;21249;-41
2023/07/29 08:11:42;;;;;;;29.43;19.77;;;;;;;18.02;100.00;100147.19;7391982;19;20480;-43
2023/07/29 08:14:11;;;;;;;29.90;19.60;;;;;;;17.95;100.00;100154.19;7367182;19;20490;-41
2023/07/29 08:16:41;;;;;;;28.83;19.20;;;;;;;17.92;100.00;100149.81;7390840;19;20501;-42
2023/07/29 08:19:11;;;;;;;25.50;17.60;;;;;;;17.90;100.00;100143.69;7365285;19;20950;-43
2023/07/29 08:21:40;;;;;;;29.70;18.17;;;;;;;17.84;100.00;100135.00;7391774;19;20800;-41
2023/07/29 08:24:10;;;;;;;27.20;17.67;;;;;;;17.83;100.00;100139.34;7366748;19;20423;-40
2023/07/29 08:26:42;;;;;;;30.27;18.20;;;;;;;17.83;100.00;100131.50;7387008;19;20415;-42
2023/07/29 08:29:12;;;;;;;26.47;18.17;;;;;;;17.88;100.00;100132.41;7365568;19;20458;-44
2023/07/29 08:31:42;;;;;;;31.83;20.40;;;;;;;17.87;100.00;100128.06;7387564;19;20456;-44
2023/07/29 08:34:11;;;;;;;55.27;29.00;;;;;;;17.84;100.00;100133.25;7367993;19;20436;-40
2023/07/29 08:36:41;;;;;;;29.90;19.00;;;;;;;17.80;100.00;100134.13;7398910;19;20404;-42
2023/07/29 08:39:11;;;;;;;32.07;19.83;;;;;;;17.81;100.00;100131.50;7372540;19;20435;-41
2023/07/29 08:41:49;;;;;;;40.63;23.07;;;;;;;17.83;100.00;100128.91;7398323;19;20447;-40
2023/07/29 08:44:25;;;;;;;38.77;24.13;;;;;;;17.82;100.00;100135.00;7373152;19;20459;-39
2023/07/29 08:46:57;;;;;;;35.93;21.30;;;;;;;17.90;100.00;100130.66;7395103;19;20415;-41
2023/07/29 08:49:27;;;;;;;39.30;22.67;;;;;;;17.93;100.00;100135.91;7372740;19;20411;-40
2023/07/29 08:51:57;;;;;;;46.97;27.67;;;;;;;17.95;100.00;100126.31;7398520;19;20459;-44
2023/07/29 08:54:27;;;;;;;40.23;24.70;;;;;;;18.00;100.00;100136.75;7372381;19;20795;-39
2023/07/29 08:56:59;;;;;;;33.63;22.17;;;;;;;18.10;100.00;100131.59;7399423;19;20796;-40
2023/07/29 08:59:31;;;;;;;36.33;22.30;;;;;;;18.17;100.00;100133.34;7371946;19;20423;-42
2023/07/29 09:02:04;;;;;;;33.23;21.17;;;;;;;18.26;100.00;100140.31;7395849;19;20444;-41
2023/07/29 09:04:34;;;;;;;35.90;22.40;;;;;;;18.25;100.00;100152.47;7371549;19;20863;-40
2023/07/29 09:07:04;;;;;;;36.80;20.43;;;;;;;18.25;100.00;100164.66;7394729;19;20407;-39
2023/07/29 09:09:34;;;;;;;36.90;20.80;;;;;;;18.34;100.00;100167.28;7372714;19;20470;-43
2023/07/29 09:12:07;;;;;;;32.43;21.40;;;;;;;18.44;100.00;100174.25;7396622;19;21067;-41
2023/07/29 09:14:37;;;;;;;52.90;29.50;;;;;;;18.59;100.00;100180.34;7373047;19;20427;-39
2023/07/29 09:17:09;;;;;;;32.57;21.33;;;;;;;18.80;100.00;100196.84;7395238;19;20923;-39
2023/07/29 09:19:39;;;;;;;64.73;36.13;;;;;;;18.75;100.00;100209.94;7371321;19;20439;-39
2023/07/29 09:22:20;;;;;;;52.83;30.20;;;;;;;18.63;100.00;100221.25;7394794;19;20530;-41
2023/07/29 09:24:50;;;;;;;33.20;20.17;;;;;;;18.67;100.00;100222.97;7372941;19;20450;-39
2023/07/29 09:27:32;;;;;;;28.23;18.70;;;;;;;18.82;100.00;100236.94;7397282;19;20760;-40
2023/07/29 09:30:03;;;;;;;29.30;18.20;;;;;;;18.75;100.00;100249.13;7372426;19;20443;-40
2023/07/29 09:32:32;;;;;;;22.70;15.97;;;;;;;18.89;100.00;100255.22;7395463;19;20464;-42
2023/07/29 09:35:02;;;;;;;25.80;16.47;;;;;;;19.01;100.00;100269.13;7372513;19;20430;-39
2023/07/29 09:37:32;;;;;;;53.97;30.27;;;;;;;19.12;100.00;100266.56;7394851;19;20400;-39
2023/07/29 09:40:01;;;;;;;31.00;17.90;;;;;;;19.18;100.00;100276.13;7366363;19;20427;-40
2023/07/29 09:42:33;;;;;;;21.00;15.57;;;;;;;19.17;100.00;100275.25;7396323;19;20463;-40
2023/07/29 09:45:03;;;;;;;53.60;30.80;;;;;;;19.36;100.00;100278.72;7370951;19;20822;-39
2023/07/29 09:47:33;;;;;;;35.20;21.23;;;;;;;19.53;100.00;100276.03;7395156;19;20430;-41
2023/07/29 09:50:02;;;;;;;32.83;19.73;;;;;;;19.65;100.00;100301.28;7371304;19;20415;-40
2023/07/29 09:52:37;;;;;;;19.47;13.20;;;;;;;19.88;100.00;100313.44;7396287;19;20443;-39
2023/07/29 09:55:08;;;;;;;42.87;23.90;;;;;;;19.94;100.00;100347.44;7368679;19;21021;-40
2023/07/29 09:57:41;;;;;;;19.07;13.50;;;;;;;20.14;100.00;100366.63;7397023;19;20412;-42
2023/07/29 10:00:14;;;;;;;15.70;12.00;;;;;;;20.43;100.00;100381.31;7370332;19;20419;-40
2023/07/29 10:02:45;;;;;;;45.93;24.30;;;;;;;20.36;100.00;100399.69;7394591;19;20583;-39
2023/07/29 10:05:15;;;;;;;22.40;13.93;;;;;;;20.35;100.00;100423.25;7369853;19;20500;-42
2023/07/29 10:07:44;;;;;;;13.63;9.30;;;;;;;20.72;100.00;100443.19;7395438;19;20415;-39
2023/07/29 10:10:14;;;;;;;12.57;9.27;;;;;;;20.76;100.00;100456.25;7370274;19;20435;-40
2023/07/29 10:12:46;;;;;;;33.03;18.60;;;;;;;20.62;100.00;100469.44;7395510;19;20562;-39
2023/07/29 10:15:16;;;;;;;13.13;8.83;;;;;;;20.75;100.00;100474.59;7369783;19;20523;-42
2023/07/29 10:17:48;;;;;;;13.67;9.03;;;;;;;20.93;100.00;100467.56;7393699;19;20495;-40
2023/07/29 10:20:18;;;;;;;9.70;7.10;;;;;;;20.99;100.00;100483.25;7366603;19;20427;-40
2023/07/29 10:22:50;;;;;;;11.60;8.70;;;;;;;21.19;100.00;100488.38;7395155;19;20802;-42
2023/07/29 10:25:20;;;;;;;16.13;7.20;;;;;;;21.15;100.00;100513.78;7369449;19;20426;-43
2023/07/29 10:27:56;;;;;;;18.40;10.20;;;;;;;20.84;100.00;100540.16;7395080;19;20407;-40
2023/07/29 10:30:27;;;;;;;15.20;9.63;;;;;;;20.72;100.00;100540.16;7368680;19;20490;-40
2023/07/29 10:33:00;;;;;;;12.20;8.47;;;;;;;20.73;100.00;100537.53;7394158;19;20824;-42
2023/07/29 10:35:30;;;;;;;7.33;5.13;;;;;;;20.81;100.00;100534.88;7370150;19;20433;-40
2023/07/29 10:38:00;;;;;;;11.87;6.63;;;;;;;20.67;100.00;100536.69;7397367;19;21054;-40
2023/07/29 10:40:46;;;;;;;12.83;6.87;;;;;;;20.96;100.00;100530.50;7368924;19;20978;-42
2023/07/29 10:43:22;;;;;;;7.70;5.50;;;;;;;21.13;100.00;100536.50;7393275;19;20400;-39
2023/07/29 10:45:52;;;;;;;10.53;6.27;;;;;;;21.15;100.00;100545.25;7373492;19;20456;-41
2023/07/29 10:48:45;;;;;;;16.10;9.47;;;;;;;21.00;100.00;100535.69;7370279;19;20825;-39
2023/07/29 10:51:25;;;;;;;10.37;6.30;;;;;;;20.79;100.00;100531.41;7393300;19;20891;-40
2023/07/29 10:53:56;;;;;;;9.23;6.37;;;;;;;20.60;100.00;100536.72;7368819;19;20423;-39
2023/07/29 10:56:32;;;;;;;20.13;11.27;;;;;;;20.56;100.00;100532.34;7392844;19;20441;-41
2023/07/29 10:59:34;;;;;;;15.23;9.60;;;;;;;20.57;100.00;100528.88;7369135;19;20454;-39
2023/07/29 11:02:04;;;;;;;13.37;6.83;;;;;;;20.63;100.00;100515.72;7394277;19;20427;-41
2023/07/29 11:04:34;;;;;;;7.80;4.70;;;;;;;20.51;100.00;100526.28;7367083;19;20943;-39
2023/07/29 11:07:26;;;;;;;6.53;3.87;;;;;;;20.54;100.00;100536.72;7395816;19;20395;-40
2023/07/29 11:10:14;;;;;;;6.70;4.10;;;;;;;20.73;100.00;100541.91;7368316;19;20419;-41
2023/07/29 11:12:48;;;;;;;13.10;7.27;;;;;;;20.80;100.00;100538.38;7392669;19;20455;-41
2023/07/29 11:15:22;;;;;;;6.93;4.43;;;;;;;20.94;100.00;100542.72;7367161;19;20438;-41
2023/07/29 11:17:54;;;;;;;7.10;5.30;;;;;;;20.94;100.00;100547.97;7393973;19;20431;-39
2023/07/29 11:20:25;;;;;;;17.70;10.00;;;;;;;21.04;100.00;100541.81;7366786;19;20427;-40
2023/07/29 11:22:56;;;;;;;9.00;5.33;;;;;;;21.17;100.00;100534.72;7392659;19;20468;-39
2023/07/29 11:25:26;;;;;;;10.67;5.57;;;;;;;21.35;100.00;100531.13;7366382;19;20506;-39